sensor_id;sensor_type;location;lat;lon;timestamp;pressure;altitude;pressure_sealevel;temperature;humidity
35151;BME280;55720;51.972;4.624;2022-07-23T00:02:16;101810.13;;;14.59;100.00
35151;BME280;55720;51.972;4.624;2022-07-23T00:04:41;101823.47;;;14.57;100.00
35151;BME280;55720;51.972;4.624;2022-07-23T00:07:06;101835.81;;;14.60;100.00
35151;BME280;55720;51.972;4.624;2022-07-23T00:09:32;101852.41;;;14.60;100.00
35151;BME280;55720;51.972;4.624;2022-07-23T00:11:57;101848.13;;;14.62;100.00
35151;BME280;55720;51.972;4.624;2022-07-23T00:14:22;101836.63;;;14.60;100.00
35151;BME280;55720;51.972;4.624;2022-07-23T00:16:48;101854.19;;;14.56;100.00
35151;BME280;55720;51.972;4.624;2022-07-23T00:19:13;101852.56;;;14.55;100.00
35151;BME280;55720;51.972;4.624;2022-07-23T00:21:39;101854.75;;;14.49;100.00
35151;BME280;55720;51.972;4.624;2022-07-23T00:24:04;101860.44;;;14.44;100.00
35151;BME280;55720;51.972;4.624;2022-07-23T00:26:30;101851.06;;;14.37;100.00
35151;BME280;55720;51.972;4.624;2022-07-23T00:28:55;101847.97;;;14.29;100.00
35151;BME280;55720;51.972;4.624;2022-07-23T00:31:20;101855.00;;;14.18;100.00
35151;BME280;55720;51.972;4.624;2022-07-23T00:33:46;101855.38;;;14.08;100.00
35151;BME280;55720;51.972;4.624;2022-07-23T00:36:11;101866.97;;;14.02;100.00
35151;BME280;55720;51.972;4.624;2022-07-23T00:38:37;101878.84;;;13.94;100.00
35151;BME280;55720;51.972;4.624;2022-07-23T00:41:02;101897.03;;;13.86;100.00
35151;BME280;55720;51.972;4.624;2022-07-23T00:43:27;101900.16;;;13.85;100.00
35151;BME280;55720;51.972;4.624;2022-07-23T00:45:53;101927.59;;;13.81;100.00
35151;BME280;55720;51.972;4.624;2022-07-23T00:48:18;101938.28;;;13.82;100.00
35151;BME280;55720;51.972;4.624;2022-07-23T00:50:43;101948.53;;;13.82;100.00
35151;BME280;55720;51.972;4.624;2022-07-23T00:53:09;101943.66;;;13.79;100.00
35151;BME280;55720;51.972;4.624;2022-07-23T00:55:35;101944.47;;;13.71;100.00
35151;BME280;55720;51.972;4.624;2022-07-23T00:58:01;101954.38;;;13.72;100.00
35151;BME280;55720;51.972;4.624;2022-07-23T01:00:27;101959.59;;;13.73;100.00
35151;BME280;55720;51.972;4.624;2022-07-23T01:02:53;101959.91;;;13.72;100.00
35151;BME280;55720;51.972;4.624;2022-07-23T01:05:18;101947.75;;;13.64;100.00
35151;BME280;55720;51.972;4.624;2022-07-23T01:07:50;101946.13;;;13.55;100.00
35151;BME280;55720;51.972;4.624;2022-07-23T01:10:16;101954.88;;;13.57;100.00
35151;BME280;55720;51.972;4.624;2022-07-23T01:13:05;101970.63;;;13.65;100.00
35151;BME280;55720;51.972;4.624;2022-07-23T01:15:32;101980.69;;;13.61;100.00
35151;BME280;55720;51.972;4.624;2022-07-23T01:17:58;101995.97;;;13.58;100.00
35151;BME280;55720;51.972;4.624;2022-07-23T01:20:24;101993.03;;;13.55;100.00
35151;BME280;55720;51.972;4.624;2022-07-23T01:22:51;102006.84;;;13.55;100.00
35151;BME280;55720;51.972;4.624;2022-07-23T01:25:17;102011.53;;;13.46;100.00
35151;BME280;55720;51.972;4.624;2022-07-23T01:27:42;102013.66;;;13.40;100.00
35151;BME280;55720;51.972;4.624;2022-07-23T01:30:08;102030.66;;;13.42;100.00
35151;BME280;55720;51.972;4.624;2022-07-23T01:32:34;102029.72;;;13.38;100.00
35151;BME280;55720;51.972;4.624;2022-07-23T01:34:59;102037.00;;;13.34;100.00
35151;BME280;55720;51.972;4.624;2022-07-23T01:37:24;102034.41;;;13.29;100.00
35151;BME280;55720;51.972;4.624;2022-07-23T01:39:50;102047.38;;;13.28;100.00
35151;BME280;55720;51.972;4.624;2022-07-23T01:42:15;102049.66;;;13.35;100.00
35151;BME280;55720;51.972;4.624;2022-07-23T01:44:41;102058.09;;;13.39;100.00
35151;BME280;55720;51.972;4.624;2022-07-23T01:47:06;102056.97;;;13.31;100.00
35151;BME280;55720;51.972;4.624;2022-07-23T01:49:32;102064.38;;;13.22;100.00
35151;BME280;55720;51.972;4.624;2022-07-23T01:51:57;102072.00;;;13.16;100.00
35151;BME280;55720;51.972;4.624;2022-07-23T01:54:30;102074.44;;;13.18;100.00
35151;BME280;55720;51.972;4.624;2022-07-23T01:56:56;102074.94;;;13.20;100.00
35151;BME280;55720;51.972;4.624;2022-07-23T01:59:22;102072.19;;;13.28;100.00
35151;BME280;55720;51.972;4.624;2022-07-23T02:01:48;102073.34;;;13.27;100.00
35151;BME280;55720;51.972;4.624;2022-07-23T02:04:16;102080.81;;;13.27;100.00
35151;BME280;55720;51.972;4.624;2022-07-23T02:06:42;102063.25;;;13.23;100.00
35151;BME280;55720;51.972;4.624;2022-07-23T02:09:07;102062.94;;;13.16;100.00
35151;BME280;55720;51.972;4.624;2022-07-23T02:11:33;102074.00;;;13.02;100.00
35151;BME280;55720;51.972;4.624;2022-07-23T02:13:58;102080.53;;;13.06;100.00
35151;BME280;55720;51.972;4.624;2022-07-23T02:16:23;102079.41;;;13.07;100.00
35151;BME280;55720;51.972;4.624;2022-07-23T02:18:49;102090.06;;;13.00;100.00
35151;BME280;55720;51.972;4.624;2022-07-23T02:21:14;102089.84;;;12.88;100.00
35151;BME280;55720;51.972;4.624;2022-07-23T02:23:40;102090.66;;;12.89;100.00
35151;BME280;55720;51.972;4.624;2022-07-23T02:26:05;102089.38;;;12.86;100.00
35151;BME280;55720;51.972;4.624;2022-07-23T02:28:31;102068.78;;;12.83;100.00
35151;BME280;55720;51.972;4.624;2022-07-23T02:30:56;102072.97;;;12.81;100.00
35151;BME280;55720;51.972;4.624;2022-07-23T02:33:21;102086.25;;;12.79;100.00
35151;BME280;55720;51.972;4.624;2022-07-23T02:35:47;102095.00;;;12.81;100.00
35151;BME280;55720;51.972;4.624;2022-07-23T02:38:12;102099.53;;;12.77;100.00
35151;BME280;55720;51.972;4.624;2022-07-23T02:40:38;102101.63;;;12.71;100.00
35151;BME280;55720;51.972;4.624;2022-07-23T02:43:03;102103.56;;;12.71;100.00
35151;BME280;55720;51.972;4.624;2022-07-23T02:45:28;102109.25;;;12.74;100.00
35151;BME280;55720;51.972;4.624;2022-07-23T02:47:54;102109.13;;;12.79;100.00
35151;BME280;55720;51.972;4.624;2022-07-23T02:50:19;102104.56;;;12.75;100.00
35151;BME280;55720;51.972;4.624;2022-07-23T02:52:45;102120.44;;;12.69;100.00
35151;BME280;55720;51.972;4.624;2022-07-23T02:55:10;102123.31;;;12.64;100.00
35151;BME280;55720;51.972;4.624;2022-07-23T02:57:36;102130.88;;;12.59;100.00
35151;BME280;55720;51.972;4.624;2022-07-23T03:00:03;102125.34;;;12.59;100.00
35151;BME280;55720;51.972;4.624;2022-07-23T03:02:29;102126.34;;;12.63;100.00
35151;BME280;55720;51.972;4.624;2022-07-23T03:04:54;102127.72;;;12.74;100.00
35151;BME280;55720;51.972;4.624;2022-07-23T03:07:20;102125.47;;;12.76;100.00
35151;BME280;55720;51.972;4.624;2022-07-23T03:09:45;102124.03;;;12.78;100.00
35151;BME280;55720;51.972;4.624;2022-07-23T03:12:11;102116.88;;;12.77;100.00
35151;BME280;55720;51.972;4.624;2022-07-23T03:14:36;102115.88;;;12.73;100.00
35151;BME280;55720;51.972;4.624;2022-07-23T03:17:02;102112.47;;;12.68;100.00
35151;BME280;55720;51.972;4.624;2022-07-23T03:19:27;102114.72;;;12.66;100.00
35151;BME280;55720;51.972;4.624;2022-07-23T03:21:52;102121.00;;;12.58;100.00
35151;BME280;55720;51.972;4.624;2022-07-23T03:24:18;102112.84;;;12.53;100.00
35151;BME280;55720;51.972;4.624;2022-07-23T03:26:43;102132.88;;;12.67;100.00
35151;BME280;55720;51.972;4.624;2022-07-23T03:29:10;102139.91;;;12.73;100.00
35151;BME280;55720;51.972;4.624;2022-07-23T03:31:35;102139.56;;;12.74;100.00
35151;BME280;55720;51.972;4.624;2022-07-23T03:34:01;102123.34;;;12.73;100.00
35151;BME280;55720;51.972;4.624;2022-07-23T03:36:27;102133.56;;;12.72;100.00
35151;BME280;55720;51.972;4.624;2022-07-23T03:38:53;102138.38;;;12.67;100.00
35151;BME280;55720;51.972;4.624;2022-07-23T03:41:19;102137.38;;;12.63;100.00
35151;BME280;55720;51.972;4.624;2022-07-23T03:43:45;102128.44;;;12.57;100.00
35151;BME280;55720;51.972;4.624;2022-07-23T03:46:11;102136.63;;;12.49;100.00
35151;BME280;55720;51.972;4.624;2022-07-23T03:48:36;102136.44;;;12.45;100.00
35151;BME280;55720;51.972;4.624;2022-07-23T03:51:02;102142.97;;;12.49;100.00
35151;BME280;55720;51.972;4.624;2022-07-23T03:53:27;102148.81;;;12.48;100.00
35151;BME280;55720;51.972;4.624;2022-07-23T03:55:53;102152.88;;;12.50;100.00
35151;BME280;55720;51.972;4.624;2022-07-23T03:58:18;102154.88;;;12.58;100.00
35151;BME280;55720;51.972;4.624;2022-07-23T04:00:43;102159.31;;;12.68;100.00
35151;BME280;55720;51.972;4.624;2022-07-23T04:03:09;102157.03;;;12.70;100.00
35151;BME280;55720;51.972;4.624;2022-07-23T04:05:34;102166.81;;;12.76;100.00
35151;BME280;55720;51.972;4.624;2022-07-23T04:08:00;102164.25;;;12.79;100.00
35151;BME280;55720;51.972;4.624;2022-07-23T04:10:25;102156.78;;;12.80;100.00
35151;BME280;55720;51.972;4.624;2022-07-23T04:12:50;102162.69;;;12.87;100.00
35151;BME280;55720;51.972;4.624;2022-07-23T04:15:16;102170.16;;;12.95;100.00
35151;BME280;55720;51.972;4.624;2022-07-23T04:17:41;102171.50;;;13.06;100.00
35151;BME280;55720;51.972;4.624;2022-07-23T04:20:09;102163.97;;;13.20;100.00
35151;BME280;55720;51.972;4.624;2022-07-23T04:22:35;102173.78;;;13.35;100.00
35151;BME280;55720;51.972;4.624;2022-07-23T04:25:01;102183.28;;;13.51;100.00
35151;BME280;55720;51.972;4.624;2022-07-23T04:27:26;102182.16;;;13.61;100.00
35151;BME280;55720;51.972;4.624;2022-07-23T04:29:51;102199.09;;;13.76;100.00
35151;BME280;55720;51.972;4.624;2022-07-23T04:32:17;102202.84;;;13.89;100.00
35151;BME280;55720;51.972;4.624;2022-07-23T04:34:42;102199.97;;;14.03;100.00
35151;BME280;55720;51.972;4.624;2022-07-23T04:37:08;102191.19;;;14.26;100.00
35151;BME280;55720;51.972;4.624;2022-07-23T04:39:33;102201.78;;;14.59;100.00
35151;BME280;55720;51.972;4.624;2022-07-23T04:41:58;102188.56;;;14.99;100.00
35151;BME280;55720;51.972;4.624;2022-07-23T04:44:24;102189.97;;;15.22;100.00
35151;BME280;55720;51.972;4.624;2022-07-23T04:46:49;102190.19;;;15.84;100.00
35151;BME280;55720;51.972;4.624;2022-07-23T04:49:14;102229.81;;;17.45;100.00
35151;BME280;55720;51.972;4.624;2022-07-23T04:51:40;102284.41;;;18.75;100.00
35151;BME280;55720;51.972;4.624;2022-07-23T04:54:05;102323.81;;;20.07;100.00
35151;BME280;55720;51.972;4.624;2022-07-23T04:56:31;102268.69;;;21.50;100.00
35151;BME280;55720;51.972;4.624;2022-07-23T04:58:56;102150.16;;;22.67;100.00
35151;BME280;55720;51.972;4.624;2022-07-23T05:01:21;101964.00;;;23.74;100.00
35151;BME280;55720;51.972;4.624;2022-07-23T05:03:47;101580.13;;;24.87;100.00
35151;BME280;55720;51.972;4.624;2022-07-23T05:06:13;101371.00;;;25.60;100.00
35151;BME280;55720;51.972;4.624;2022-07-23T05:08:39;101443.69;;;25.61;100.00
35151;BME280;55720;51.972;4.624;2022-07-23T05:11:04;101535.44;;;23.09;100.00
35151;BME280;55720;51.972;4.624;2022-07-23T05:13:30;101580.31;;;21.32;100.00
35151;BME280;55720;51.972;4.624;2022-07-23T05:15:55;101594.09;;;20.34;100.00
35151;BME280;55720;51.972;4.624;2022-07-23T05:18:21;101591.22;;;20.00;100.00
35151;BME280;55720;51.972;4.624;2022-07-23T05:20:46;101591.50;;;19.62;100.00
35151;BME280;55720;51.972;4.624;2022-07-23T05:23:11;101586.22;;;19.83;100.00
35151;BME280;55720;51.972;4.624;2022-07-23T05:25:37;101593.00;;;19.82;100.00
35151;BME280;55720;51.972;4.624;2022-07-23T05:28:02;101593.78;;;20.12;100.00
35151;BME280;55720;51.972;4.624;2022-07-23T05:30:28;101614.88;;;20.10;100.00
35151;BME280;55720;51.972;4.624;2022-07-23T05:32:54;101641.44;;;19.48;100.00
35151;BME280;55720;51.972;4.624;2022-07-23T05:35:20;101641.06;;;19.49;100.00
35151;BME280;55720;51.972;4.624;2022-07-23T05:37:45;101630.66;;;19.73;100.00
35151;BME280;55720;51.972;4.624;2022-07-23T05:40:11;101625.44;;;19.97;100.00
35151;BME280;55720;51.972;4.624;2022-07-23T05:42:38;101628.16;;;19.64;100.00
35151;BME280;55720;51.972;4.624;2022-07-23T05:45:04;101651.69;;;19.21;100.00
35151;BME280;55720;51.972;4.624;2022-07-23T05:47:48;101647.59;;;18.92;100.00
35151;BME280;55720;51.972;4.624;2022-07-23T05:50:15;101653.81;;;18.86;100.00
35151;BME280;55720;51.972;4.624;2022-07-23T05:52:41;101659.25;;;18.79;100.00
35151;BME280;55720;51.972;4.624;2022-07-23T05:55:07;101662.25;;;18.89;100.00
35151;BME280;55720;51.972;4.624;2022-07-23T05:57:34;101664.00;;;18.97;100.00
35151;BME280;55720;51.972;4.624;2022-07-23T05:59:59;101660.91;;;19.02;100.00
35151;BME280;55720;51.972;4.624;2022-07-23T06:02:24;101668.88;;;19.04;100.00
35151;BME280;55720;51.972;4.624;2022-07-23T06:04:50;101666.16;;;19.07;100.00
35151;BME280;55720;51.972;4.624;2022-07-23T06:07:15;101663.56;;;19.41;100.00
35151;BME280;55720;51.972;4.624;2022-07-23T06:09:40;101676.78;;;19.44;100.00
35151;BME280;55720;51.972;4.624;2022-07-23T06:12:06;101682.09;;;19.52;100.00
35151;BME280;55720;51.972;4.624;2022-07-23T06:14:32;101667.41;;;20.08;100.00
35151;BME280;55720;51.972;4.624;2022-07-23T06:16:57;101668.94;;;21.35;100.00
35151;BME280;55720;51.972;4.624;2022-07-23T06:19:23;101657.97;;;23.61;100.00
35151;BME280;55720;51.972;4.624;2022-07-23T06:21:48;101685.69;;;26.32;100.00
35151;BME280;55720;51.972;4.624;2022-07-23T06:24:13;101922.31;;;28.02;100.00
35151;BME280;55720;51.972;4.624;2022-07-23T06:26:39;102109.41;;;26.76;100.00
35151;BME280;55720;51.972;4.624;2022-07-23T06:29:04;102121.41;;;24.37;100.00
35151;BME280;55720;51.972;4.624;2022-07-23T06:31:30;102141.78;;;22.07;100.00
35151;BME280;55720;51.972;4.624;2022-07-23T06:33:55;102131.34;;;21.03;100.00
35151;BME280;55720;51.972;4.624;2022-07-23T06:36:20;102105.63;;;21.92;100.00
35151;BME280;55720;51.972;4.624;2022-07-23T06:38:46;102110.47;;;21.16;100.00
35151;BME280;55720;51.972;4.624;2022-07-23T06:41:11;102098.50;;;20.96;100.00
35151;BME280;55720;51.972;4.624;2022-07-23T06:43:37;102107.75;;;21.76;100.00
35151;BME280;55720;51.972;4.624;2022-07-23T06:46:02;102104.06;;;24.14;100.00
35151;BME280;55720;51.972;4.624;2022-07-23T06:48:27;102129.38;;;24.32;100.00
35151;BME280;55720;51.972;4.624;2022-07-23T06:50:54;102141.91;;;23.73;100.00
35151;BME280;55720;51.972;4.624;2022-07-23T06:53:20;102133.44;;;23.18;100.00
35151;BME280;55720;51.972;4.624;2022-07-23T06:55:45;102146.66;;;22.77;100.00
35151;BME280;55720;51.972;4.624;2022-07-23T06:58:11;102150.84;;;22.27;100.00
35151;BME280;55720;51.972;4.624;2022-07-23T07:00:36;102146.88;;;22.28;100.00
35151;BME280;55720;51.972;4.624;2022-07-23T07:03:02;102153.69;;;22.31;100.00
35151;BME280;55720;51.972;4.624;2022-07-23T07:05:27;102149.59;;;22.58;100.00
35151;BME280;55720;51.972;4.624;2022-07-23T07:07:56;102147.53;;;24.63;100.00
35151;BME280;55720;51.972;4.624;2022-07-23T07:10:22;102126.38;;;28.66;100.00
35151;BME280;55720;51.972;4.624;2022-07-23T07:12:47;102106.47;;;31.01;100.00
35151;BME280;55720;51.972;4.624;2022-07-23T07:15:12;102082.59;;;30.30;100.00
35151;BME280;55720;51.972;4.624;2022-07-23T07:17:38;102108.16;;;28.41;100.00
35151;BME280;55720;51.972;4.624;2022-07-23T07:20:05;102141.59;;;26.75;100.00
35151;BME280;55720;51.972;4.624;2022-07-23T07:22:30;102135.56;;;28.13;100.00
35151;BME280;55720;51.972;4.624;2022-07-23T07:24:56;102130.44;;;28.01;100.00
35151;BME280;55720;51.972;4.624;2022-07-23T07:27:21;102112.75;;;30.20;100.00
35151;BME280;55720;51.972;4.624;2022-07-23T07:29:46;102090.31;;;30.82;100.00
35151;BME280;55720;51.972;4.624;2022-07-23T07:32:12;102101.44;;;29.58;100.00
35151;BME280;55720;51.972;4.624;2022-07-23T07:34:37;102122.03;;;28.89;100.00
35151;BME280;55720;51.972;4.624;2022-07-23T07:37:02;102113.47;;;30.44;100.00
35151;BME280;55720;51.972;4.624;2022-07-23T07:39:28;102100.56;;;30.59;100.00
35151;BME280;55720;51.972;4.624;2022-07-23T07:41:53;102081.94;;;32.38;95.95
35151;BME280;55720;51.972;4.624;2022-07-23T07:44:18;102061.97;;;33.27;79.64
35151;BME280;55720;51.972;4.624;2022-07-23T07:46:44;102046.78;;;34.38;74.35
35151;BME280;55720;51.972;4.624;2022-07-23T07:49:09;102029.84;;;36.02;62.87
35151;BME280;55720;51.972;4.624;2022-07-23T07:51:35;102040.66;;;35.07;60.71
35151;BME280;55720;51.972;4.624;2022-07-23T07:54:00;102050.53;;;34.04;60.54
35151;BME280;55720;51.972;4.624;2022-07-23T07:56:26;102043.28;;;34.34;59.36
35151;BME280;55720;51.972;4.624;2022-07-23T07:58:51;102042.75;;;34.57;58.08
35151;BME280;55720;51.972;4.624;2022-07-23T08:01:17;102051.81;;;34.03;55.42
35151;BME280;55720;51.972;4.624;2022-07-23T08:03:44;102078.22;;;32.41;61.83
35151;BME280;55720;51.972;4.624;2022-07-23T08:06:09;102102.19;;;31.57;69.52
35151;BME280;55720;51.972;4.624;2022-07-23T08:08:34;102118.53;;;32.11;75.60
35151;BME280;55720;51.972;4.624;2022-07-23T08:11:00;102108.47;;;31.65;74.22
35151;BME280;55720;51.972;4.624;2022-07-23T08:13:25;102090.59;;;32.85;70.58
35151;BME280;55720;51.972;4.624;2022-07-23T08:15:51;102080.44;;;33.56;66.38
35151;BME280;55720;51.972;4.624;2022-07-23T08:18:18;102072.22;;;34.02;61.75
35151;BME280;55720;51.972;4.624;2022-07-23T08:20:44;102073.72;;;33.85;59.16
35151;BME280;55720;51.972;4.624;2022-07-23T08:23:09;102064.13;;;34.93;56.72
35151;BME280;55720;51.972;4.624;2022-07-23T08:25:37;102070.84;;;35.26;56.93
35151;BME280;55720;51.972;4.624;2022-07-23T08:28:05;102053.16;;;34.42;53.82
35151;BME280;55720;51.972;4.624;2022-07-23T08:30:32;102084.13;;;32.47;56.82
35151;BME280;55720;51.972;4.624;2022-07-23T08:33:02;102076.25;;;33.01;58.11
35151;BME280;55720;51.972;4.624;2022-07-23T08:35:36;102080.50;;;32.72;58.43
35151;BME280;55720;51.972;4.624;2022-07-23T08:38:07;102095.47;;;32.22;63.25
35151;BME280;55720;51.972;4.624;2022-07-23T08:40:35;102089.31;;;33.58;60.14
35151;BME280;55720;51.972;4.624;2022-07-23T08:43:05;102089.41;;;33.68;59.63
35151;BME280;55720;51.972;4.624;2022-07-23T08:45:35;102097.56;;;32.84;63.53
35151;BME280;55720;51.972;4.624;2022-07-23T08:48:01;102087.53;;;32.29;61.08
35151;BME280;55720;51.972;4.624;2022-07-23T08:50:28;102108.19;;;32.17;65.32
35151;BME280;55720;51.972;4.624;2022-07-23T08:52:53;102088.91;;;32.88;59.84
35151;BME280;55720;51.972;4.624;2022-07-23T08:55:21;102094.25;;;32.48;60.19
35151;BME280;55720;51.972;4.624;2022-07-23T08:57:48;102093.66;;;32.40;62.81
35151;BME280;55720;51.972;4.624;2022-07-23T09:00:15;102118.41;;;31.86;65.25
35151;BME280;55720;51.972;4.624;2022-07-23T09:02:42;102104.84;;;32.73;64.20
35151;BME280;55720;51.972;4.624;2022-07-23T09:05:09;102110.06;;;33.46;60.98
35151;BME280;55720;51.972;4.624;2022-07-23T09:07:36;102096.28;;;33.79;57.85
35151;BME280;55720;51.972;4.624;2022-07-23T09:10:10;102093.00;;;33.81;56.65
35151;BME280;55720;51.972;4.624;2022-07-23T09:12:37;102084.03;;;33.91;52.53
35151;BME280;55720;51.972;4.624;2022-07-23T09:15:04;102122.19;;;32.24;56.88
35151;BME280;55720;51.972;4.624;2022-07-23T09:17:37;102131.91;;;31.82;63.42
35151;BME280;55720;51.972;4.624;2022-07-23T09:20:10;102116.56;;;32.75;62.86
35151;BME280;55720;51.972;4.624;2022-07-23T09:22:36;102102.44;;;33.09;58.50
35151;BME280;55720;51.972;4.624;2022-07-23T09:25:12;102130.69;;;32.11;63.12
35151;BME280;55720;51.972;4.624;2022-07-23T09:27:55;102140.66;;;31.42;66.54
35151;BME280;55720;51.972;4.624;2022-07-23T09:30:25;102128.75;;;31.47;64.73
35151;BME280;55720;51.972;4.624;2022-07-23T09:33:05;102134.97;;;30.94;65.68
35151;BME280;55720;51.972;4.624;2022-07-23T09:35:44;102138.97;;;30.96;67.06
35151;BME280;55720;51.972;4.624;2022-07-23T09:38:10;102138.97;;;30.44;70.04
35151;BME280;55720;51.972;4.624;2022-07-23T09:40:35;102138.66;;;31.10;71.08
35151;BME280;55720;51.972;4.624;2022-07-23T09:43:00;102149.38;;;29.92;75.39
35151;BME280;55720;51.972;4.624;2022-07-23T09:45:26;102147.53;;;30.60;80.30
35151;BME280;55720;51.972;4.624;2022-07-23T09:48:10;102155.38;;;30.13;76.48
35151;BME280;55720;51.972;4.624;2022-07-23T09:50:35;102162.94;;;30.59;84.99
35151;BME280;55720;51.972;4.624;2022-07-23T09:53:01;102143.97;;;30.56;74.99
35151;BME280;55720;51.972;4.624;2022-07-23T09:55:34;102155.88;;;30.84;77.91
35151;BME280;55720;51.972;4.624;2022-07-23T09:58:05;102144.66;;;31.45;72.35
35151;BME280;55720;51.972;4.624;2022-07-23T10:00:32;102130.47;;;32.18;68.67
35151;BME280;55720;51.972;4.624;2022-07-23T10:02:58;102130.47;;;32.18;67.63
35151;BME280;55720;51.972;4.624;2022-07-23T10:05:25;102128.88;;;32.17;64.43
35151;BME280;55720;51.972;4.624;2022-07-23T10:07:51;102155.16;;;31.32;73.09
35151;BME280;55720;51.972;4.624;2022-07-23T10:10:17;102134.66;;;31.24;68.29
35151;BME280;55720;51.972;4.624;2022-07-23T10:12:46;102141.84;;;31.12;74.82
35151;BME280;55720;51.972;4.624;2022-07-23T10:15:12;102157.09;;;31.35;77.18
35151;BME280;55720;51.972;4.624;2022-07-23T10:17:37;102155.16;;;30.99;78.13
35151;BME280;55720;51.972;4.624;2022-07-23T10:20:04;102169.06;;;29.52;82.38
35151;BME280;55720;51.972;4.624;2022-07-23T10:22:33;102172.53;;;29.83;96.87
35151;BME280;55720;51.972;4.624;2022-07-23T10:25:26;102172.78;;;29.22;86.98
35151;BME280;55720;51.972;4.624;2022-07-23T10:28:29;102179.22;;;29.26;100.00
35151;BME280;55720;51.972;4.624;2022-07-23T10:34:02;102177.88;;;29.08;100.00
35151;BME280;55720;51.972;4.624;2022-07-23T10:36:36;102184.56;;;28.91;100.00
35151;BME280;55720;51.972;4.624;2022-07-23T10:39:13;102172.72;;;29.26;100.00
35151;BME280;55720;51.972;4.624;2022-07-23T10:41:41;102185.91;;;29.09;100.00
35151;BME280;55720;51.972;4.624;2022-07-23T10:44:23;102171.19;;;29.21;100.00
35151;BME280;55720;51.972;4.624;2022-07-23T10:47:01;102164.66;;;29.51;100.00
35151;BME280;55720;51.972;4.624;2022-07-23T10:49:29;102187.69;;;28.02;100.00
35151;BME280;55720;51.972;4.624;2022-07-23T10:54:43;102170.56;;;28.53;100.00
35151;BME280;55720;51.972;4.624;2022-07-23T10:57:10;102161.94;;;28.33;100.00
35151;BME280;55720;51.972;4.624;2022-07-23T11:02:42;102196.13;;;27.64;100.00
35151;BME280;55720;51.972;4.624;2022-07-23T11:05:14;102181.34;;;27.50;100.00
35151;BME280;55720;51.972;4.624;2022-07-23T11:10:37;102187.03;;;27.46;100.00
35151;BME280;55720;51.972;4.624;2022-07-23T11:24:03;102200.50;;;26.55;100.00
35151;BME280;55720;51.972;4.624;2022-07-23T11:26:46;102199.94;;;26.85;100.00
35151;BME280;55720;51.972;4.624;2022-07-23T11:32:22;102196.13;;;26.36;100.00
35151;BME280;55720;51.972;4.624;2022-07-23T11:34:50;102206.31;;;25.81;100.00
35151;BME280;55720;51.972;4.624;2022-07-23T11:39:55;102201.00;;;26.25;100.00
35151;BME280;55720;51.972;4.624;2022-07-23T11:42:20;102207.06;;;25.99;100.00
35151;BME280;55720;51.972;4.624;2022-07-23T11:44:46;102202.50;;;26.55;100.00
35151;BME280;55720;51.972;4.624;2022-07-23T11:47:12;102201.31;;;26.45;100.00
35151;BME280;55720;51.972;4.624;2022-07-23T11:49:38;102190.16;;;26.06;100.00
35151;BME280;55720;51.972;4.624;2022-07-23T11:52:08;102194.94;;;26.27;100.00
35151;BME280;55720;51.972;4.624;2022-07-23T11:54:36;102189.88;;;26.87;100.00
35151;BME280;55720;51.972;4.624;2022-07-23T11:57:03;102177.78;;;26.90;100.00
35151;BME280;55720;51.972;4.624;2022-07-23T11:59:31;102183.28;;;27.08;100.00
35151;BME280;55720;51.972;4.624;2022-07-23T12:02:03;102158.38;;;27.51;100.00
35151;BME280;55720;51.972;4.624;2022-07-23T12:04:42;102165.31;;;27.39;100.00
35151;BME280;55720;51.972;4.624;2022-07-23T12:07:34;102172.09;;;26.98;100.00
35151;BME280;55720;51.972;4.624;2022-07-23T12:10:13;102170.16;;;26.80;100.00
35151;BME280;55720;51.972;4.624;2022-07-23T12:12:47;102176.50;;;26.01;100.00
35151;BME280;55720;51.972;4.624;2022-07-23T12:15:16;102182.63;;;25.68;100.00
35151;BME280;55720;51.972;4.624;2022-07-23T12:17:46;102188.94;;;26.14;100.00
35151;BME280;55720;51.972;4.624;2022-07-23T12:20:14;102174.75;;;27.19;100.00
35151;BME280;55720;51.972;4.624;2022-07-23T12:22:41;102168.72;;;27.65;100.00
35151;BME280;55720;51.972;4.624;2022-07-23T12:25:12;102171.88;;;27.74;100.00
35151;BME280;55720;51.972;4.624;2022-07-23T12:27:38;102164.38;;;27.05;100.00
35151;BME280;55720;51.972;4.624;2022-07-23T12:32:46;102161.44;;;28.05;100.00
35151;BME280;55720;51.972;4.624;2022-07-23T12:35:13;102148.66;;;27.93;100.00
35151;BME280;55720;51.972;4.624;2022-07-23T12:37:41;102150.69;;;28.30;100.00
35151;BME280;55720;51.972;4.624;2022-07-23T12:40:23;102154.50;;;27.75;100.00
35151;BME280;55720;51.972;4.624;2022-07-23T12:42:51;102151.00;;;27.64;100.00
35151;BME280;55720;51.972;4.624;2022-07-23T12:45:17;102160.69;;;27.15;100.00
35151;BME280;55720;51.972;4.624;2022-07-23T12:48:05;102161.44;;;26.57;100.00
35151;BME280;55720;51.972;4.624;2022-07-23T12:58:49;102161.59;;;27.02;100.00
35151;BME280;55720;51.972;4.624;2022-07-23T13:06:29;102160.31;;;27.06;100.00
35151;BME280;55720;51.972;4.624;2022-07-23T13:08:55;102152.72;;;27.00;100.00
35151;BME280;55720;51.972;4.624;2022-07-23T13:11:21;102148.31;;;27.50;100.00
35151;BME280;55720;51.972;4.624;2022-07-23T13:13:46;102132.34;;;28.11;100.00
35151;BME280;55720;51.972;4.624;2022-07-23T13:16:12;102139.38;;;28.30;100.00
35151;BME280;55720;51.972;4.624;2022-07-23T13:18:37;102137.50;;;27.42;100.00
35151;BME280;55720;51.972;4.624;2022-07-23T13:21:03;102140.56;;;27.99;100.00
35151;BME280;55720;51.972;4.624;2022-07-23T13:23:29;102131.13;;;27.75;100.00
35151;BME280;55720;51.972;4.624;2022-07-23T13:25:54;102141.50;;;27.48;100.00
35151;BME280;55720;51.972;4.624;2022-07-23T13:28:21;102132.19;;;27.51;100.00